Meath Environmental Platform

Observations for Trim Patrick St

Time AQI Temp °C Hum % Pres Pa CO μg/m³ H₂S μg/m³ NO μg/m³ NO₂ μg/m³ O₃ μg/m³ SO₂ μg/m³ PM1 μg/m³ PM2.5 μg/m³ PM10 μg/m³
Tuesday 4 August 2026
04:05 1 16.7 87 38,459 0.18 0 2.24 9.61 44.56 0 8 12.3 13.53
04:04 1 16.7 87 38,459 0.19 0 2.24 3 36.84 0 8 10.25 11.27
04:03 1 16.6 87 38,459 0.18 0 2.25 5.38 35.71 0 8.86 12.98 14.28
04:02 1 16.6 87 38,459 0.18 0 2.25 4.99 36.54 0 8 11.62 12.78
04:01 1 16.7 87 38,459 0.17 0.95 2.24 15.72 58.6 0 8.86 12.31 13.54
04:00 1 16.6 87 38,459 0.18 0.71 2.25 20.63 58.64 0 8 11.63 12.79
03:59 1 16.6 87 38,459 0.18 0 2.26 8.4 42.12 0 7.14 10.93 12.03
03:58 1 16.6 87 38,459 0.18 0 2.24 8.07 44.36 0 7.14 10.94 12.03
03:57 1 16.6 87 38,459 0.18 0 2.23 4.86 43.33 0 8 11.62 12.78
03:56 1 16.6 87 38,459 0.17 0 2.25 11.86 50.13 0 7.14 10.93 12.03
03:55 1 16.6 87 38,459 0.17 0 2.27 2.91 41.26 0 6.29 10.25 11.27
03:54 1 16.6 87 38,459 0.17 0.27 2.28 16.81 58.59 0 8 10.95 12.04
03:53 1 16.6 87 38,459 0.18 0 2.23 12.19 52.75 0 8.86 11.63 12.8
03:52 1 16.6 87 38,459 0.17 0 2.25 9.5 48.84 0 10.57 13.67 15.04
03:51 1 16.6 87 38,459 0.17 0 2.28 7.24 42.64 0 7.14 8.88 9.76
03:50 1 16.6 87 38,459 0.18 0 2.28 15.66 55.8 0 7.14 10.94 12.03
03:49 1 16.5 87 38,459 0.17 0 2.28 6.77 44.91 0 8 10.93 12.03
03:48 1 16.5 87 38,459 0.18 0 2.3 2.78 40.27 0 7.14 10.25 11.27
03:47 1 16.5 87 38,459 0.17 0 2.29 11.51 52.08 0 7.14 10.93 12.03
03:43 1 16.5 87 38,459 0.17 0 2.28 7.5 45.47 0 6.29 9.57 10.53